Terminal Aerodrome Forecast
Issued by NWS Tampa Bay Area, FL

Home | Current Version | Previous Version | Text Only | Print | Product List | Glossary On
Versions: 1 2 3 4 5 6 7 8 9 10 11 12 13 14 15 16 17 18 19 20 21 22 23 24 25
095
FTUS42 KTBW 132326
TAFTPA
TAF
KTPA 132326Z 1400/1506 31004KT P6SM FEW250
     FM140300 20004KT P6SM FEW250
     FM141200 20005KT P6SM BKN050
     FM141600 23009KT P6SM BKN060
     FM150200 VRB03KT P6SM BKN060=

USA.gov is the U.S. government's official web portal to all federal, state and local government web resources and services.